sensor_id;sensor_type;location;lat;lon;timestamp;P1;durP1;ratioP1;P2;durP2;ratioP2
32094;SDS011;18608;53.688;10.748;2023-11-21T00:00:18;23.90;;;11.30;;
32094;SDS011;18608;53.688;10.748;2023-11-21T00:02:44;23.93;;;11.57;;
32094;SDS011;18608;53.688;10.748;2023-11-21T00:05:11;23.77;;;12.67;;
32094;SDS011;18608;53.688;10.748;2023-11-21T00:07:39;22.27;;;11.20;;
32094;SDS011;18608;53.688;10.748;2023-11-21T00:10:06;20.43;;;11.27;;
32094;SDS011;18608;53.688;10.748;2023-11-21T00:12:33;23.57;;;13.00;;
32094;SDS011;18608;53.688;10.748;2023-11-21T00:14:59;15.03;;;9.70;;
32094;SDS011;18608;53.688;10.748;2023-11-21T00:17:26;20.17;;;10.87;;
32094;SDS011;18608;53.688;10.748;2023-11-21T00:19:52;21.70;;;11.20;;
32094;SDS011;18608;53.688;10.748;2023-11-21T00:22:18;19.00;;;10.93;;
32094;SDS011;18608;53.688;10.748;2023-11-21T00:24:44;22.60;;;10.97;;
32094;SDS011;18608;53.688;10.748;2023-11-21T00:27:10;11.17;;;6.70;;
32094;SDS011;18608;53.688;10.748;2023-11-21T00:29:36;12.77;;;8.10;;
32094;SDS011;18608;53.688;10.748;2023-11-21T00:32:03;19.23;;;10.57;;
32094;SDS011;18608;53.688;10.748;2023-11-21T00:34:30;23.20;;;10.60;;
32094;SDS011;18608;53.688;10.748;2023-11-21T00:36:56;13.80;;;8.70;;
32094;SDS011;18608;53.688;10.748;2023-11-21T00:39:22;20.33;;;11.43;;
32094;SDS011;18608;53.688;10.748;2023-11-21T00:41:48;17.40;;;10.23;;
32094;SDS011;18608;53.688;10.748;2023-11-21T00:44:14;23.20;;;10.33;;
32094;SDS011;18608;53.688;10.748;2023-11-21T00:46:41;18.23;;;9.63;;
32094;SDS011;18608;53.688;10.748;2023-11-21T00:49:06;17.83;;;10.57;;
32094;SDS011;18608;53.688;10.748;2023-11-21T00:51:33;21.47;;;10.83;;
32094;SDS011;18608;53.688;10.748;2023-11-21T00:53:59;16.63;;;10.33;;
32094;SDS011;18608;53.688;10.748;2023-11-21T00:56:25;18.73;;;9.77;;
32094;SDS011;18608;53.688;10.748;2023-11-21T00:58:51;20.37;;;10.37;;
32094;SDS011;18608;53.688;10.748;2023-11-21T01:01:18;13.73;;;7.30;;
32094;SDS011;18608;53.688;10.748;2023-11-21T01:03:45;14.70;;;7.77;;
32094;SDS011;18608;53.688;10.748;2023-11-21T01:06:11;11.77;;;6.87;;
32094;SDS011;18608;53.688;10.748;2023-11-21T01:08:37;15.10;;;8.33;;
32094;SDS011;18608;53.688;10.748;2023-11-21T01:11:03;14.07;;;6.13;;
32094;SDS011;18608;53.688;10.748;2023-11-21T01:13:30;14.93;;;8.60;;
32094;SDS011;18608;53.688;10.748;2023-11-21T01:15:56;11.30;;;6.00;;
32094;SDS011;18608;53.688;10.748;2023-11-21T01:18:22;12.93;;;8.57;;
32094;SDS011;18608;53.688;10.748;2023-11-21T01:20:50;16.27;;;7.43;;
32094;SDS011;18608;53.688;10.748;2023-11-21T01:23:18;12.33;;;7.60;;
32094;SDS011;18608;53.688;10.748;2023-11-21T01:25:44;12.63;;;7.73;;
32094;SDS011;18608;53.688;10.748;2023-11-21T01:28:10;12.07;;;7.73;;
32094;SDS011;18608;53.688;10.748;2023-11-21T01:30:37;15.07;;;8.07;;
32094;SDS011;18608;53.688;10.748;2023-11-21T01:33:03;15.80;;;7.50;;
32094;SDS011;18608;53.688;10.748;2023-11-21T01:35:29;13.73;;;8.20;;
32094;SDS011;18608;53.688;10.748;2023-11-21T01:37:55;12.10;;;8.00;;
32094;SDS011;18608;53.688;10.748;2023-11-21T01:40:21;8.40;;;5.93;;
32094;SDS011;18608;53.688;10.748;2023-11-21T01:42:47;9.17;;;6.57;;
32094;SDS011;18608;53.688;10.748;2023-11-21T01:45:13;13.67;;;8.37;;
32094;SDS011;18608;53.688;10.748;2023-11-21T01:47:40;14.30;;;7.57;;
32094;SDS011;18608;53.688;10.748;2023-11-21T01:50:06;9.33;;;6.70;;
32094;SDS011;18608;53.688;10.748;2023-11-21T01:52:36;11.80;;;6.63;;
32094;SDS011;18608;53.688;10.748;2023-11-21T01:55:04;9.17;;;5.93;;
32094;SDS011;18608;53.688;10.748;2023-11-21T01:57:31;6.70;;;3.77;;
32094;SDS011;18608;53.688;10.748;2023-11-21T01:59:57;13.53;;;5.90;;
32094;SDS011;18608;53.688;10.748;2023-11-21T02:02:26;11.80;;;6.70;;
32094;SDS011;18608;53.688;10.748;2023-11-21T02:04:52;10.47;;;5.67;;
32094;SDS011;18608;53.688;10.748;2023-11-21T02:07:18;9.47;;;6.67;;
32094;SDS011;18608;53.688;10.748;2023-11-21T02:09:44;12.57;;;7.70;;
32094;SDS011;18608;53.688;10.748;2023-11-21T02:12:10;11.80;;;6.77;;
32094;SDS011;18608;53.688;10.748;2023-11-21T02:14:36;7.73;;;4.23;;
32094;SDS011;18608;53.688;10.748;2023-11-21T02:17:02;12.77;;;6.90;;
32094;SDS011;18608;53.688;10.748;2023-11-21T02:19:28;10.37;;;6.10;;
32094;SDS011;18608;53.688;10.748;2023-11-21T02:21:56;11.93;;;6.47;;
32094;SDS011;18608;53.688;10.748;2023-11-21T02:24:28;9.13;;;6.20;;
32094;SDS011;18608;53.688;10.748;2023-11-21T02:26:54;12.70;;;7.00;;
32094;SDS011;18608;53.688;10.748;2023-11-21T02:29:21;15.70;;;6.70;;
32094;SDS011;18608;53.688;10.748;2023-11-21T02:31:52;15.07;;;8.60;;
32094;SDS011;18608;53.688;10.748;2023-11-21T02:34:19;6.47;;;5.60;;
32094;SDS011;18608;53.688;10.748;2023-11-21T02:36:45;12.87;;;7.37;;
32094;SDS011;18608;53.688;10.748;2023-11-21T02:39:12;19.30;;;8.40;;
32094;SDS011;18608;53.688;10.748;2023-11-21T02:41:38;13.80;;;9.33;;
32094;SDS011;18608;53.688;10.748;2023-11-21T02:44:05;9.13;;;5.50;;
32094;SDS011;18608;53.688;10.748;2023-11-21T02:46:31;14.80;;;7.60;;
32094;SDS011;18608;53.688;10.748;2023-11-21T02:48:58;7.73;;;5.70;;
32094;SDS011;18608;53.688;10.748;2023-11-21T02:51:24;12.70;;;7.70;;
32094;SDS011;18608;53.688;10.748;2023-11-21T02:53:50;16.13;;;8.90;;
32094;SDS011;18608;53.688;10.748;2023-11-21T02:56:16;7.83;;;6.30;;
32094;SDS011;18608;53.688;10.748;2023-11-21T02:58:42;11.17;;;6.70;;
32094;SDS011;18608;53.688;10.748;2023-11-21T03:01:09;11.03;;;7.97;;
32094;SDS011;18608;53.688;10.748;2023-11-21T03:03:35;13.43;;;7.57;;
32094;SDS011;18608;53.688;10.748;2023-11-21T03:06:05;10.90;;;7.83;;
32094;SDS011;18608;53.688;10.748;2023-11-21T03:08:31;10.00;;;7.77;;
32094;SDS011;18608;53.688;10.748;2023-11-21T03:10:57;13.27;;;7.17;;
32094;SDS011;18608;53.688;10.748;2023-11-21T03:13:23;12.17;;;7.33;;
32094;SDS011;18608;53.688;10.748;2023-11-21T03:15:49;12.63;;;7.67;;
32094;SDS011;18608;53.688;10.748;2023-11-21T03:18:15;11.13;;;6.73;;
32094;SDS011;18608;53.688;10.748;2023-11-21T03:20:42;13.53;;;8.40;;
32094;SDS011;18608;53.688;10.748;2023-11-21T03:23:11;9.13;;;6.60;;
32094;SDS011;18608;53.688;10.748;2023-11-21T03:25:37;11.40;;;7.00;;
32094;SDS011;18608;53.688;10.748;2023-11-21T03:28:03;15.47;;;8.80;;
32094;SDS011;18608;53.688;10.748;2023-11-21T03:30:29;14.63;;;6.80;;
32094;SDS011;18608;53.688;10.748;2023-11-21T03:32:55;11.43;;;7.20;;
32094;SDS011;18608;53.688;10.748;2023-11-21T03:35:21;15.00;;;8.80;;
32094;SDS011;18608;53.688;10.748;2023-11-21T03:37:48;14.83;;;8.00;;
32094;SDS011;18608;53.688;10.748;2023-11-21T03:40:14;10.80;;;7.70;;
32094;SDS011;18608;53.688;10.748;2023-11-21T03:42:40;11.10;;;5.47;;
32094;SDS011;18608;53.688;10.748;2023-11-21T03:45:07;17.23;;;8.37;;
32094;SDS011;18608;53.688;10.748;2023-11-21T03:47:33;14.70;;;6.50;;
32094;SDS011;18608;53.688;10.748;2023-11-21T03:49:59;6.90;;;4.87;;
32094;SDS011;18608;53.688;10.748;2023-11-21T03:52:25;12.83;;;7.60;;
32094;SDS011;18608;53.688;10.748;2023-11-21T03:54:53;12.47;;;7.63;;
32094;SDS011;18608;53.688;10.748;2023-11-21T03:57:20;9.67;;;6.40;;
32094;SDS011;18608;53.688;10.748;2023-11-21T03:59:46;14.70;;;8.37;;
32094;SDS011;18608;53.688;10.748;2023-11-21T04:02:12;10.70;;;7.57;;
32094;SDS011;18608;53.688;10.748;2023-11-21T04:04:38;12.53;;;5.40;;
32094;SDS011;18608;53.688;10.748;2023-11-21T04:07:04;13.50;;;8.83;;
32094;SDS011;18608;53.688;10.748;2023-11-21T04:09:30;11.60;;;7.80;;
32094;SDS011;18608;53.688;10.748;2023-11-21T04:11:56;7.60;;;5.20;;
32094;SDS011;18608;53.688;10.748;2023-11-21T04:14:22;12.10;;;7.83;;
32094;SDS011;18608;53.688;10.748;2023-11-21T04:16:48;12.30;;;7.80;;
32094;SDS011;18608;53.688;10.748;2023-11-21T04:19:14;13.50;;;8.27;;
32094;SDS011;18608;53.688;10.748;2023-11-21T04:21:41;11.60;;;7.20;;
32094;SDS011;18608;53.688;10.748;2023-11-21T04:24:07;14.03;;;8.50;;
32094;SDS011;18608;53.688;10.748;2023-11-21T04:26:33;12.37;;;8.13;;
32094;SDS011;18608;53.688;10.748;2023-11-21T04:28:59;11.90;;;9.60;;
32094;SDS011;18608;53.688;10.748;2023-11-21T04:31:25;16.90;;;9.10;;
32094;SDS011;18608;53.688;10.748;2023-11-21T04:33:50;14.07;;;7.77;;
32094;SDS011;18608;53.688;10.748;2023-11-21T04:36:16;16.70;;;9.43;;
32094;SDS011;18608;53.688;10.748;2023-11-21T04:38:42;13.20;;;8.10;;
32094;SDS011;18608;53.688;10.748;2023-11-21T04:41:09;14.60;;;8.87;;
32094;SDS011;18608;53.688;10.748;2023-11-21T04:43:35;22.07;;;10.80;;
32094;SDS011;18608;53.688;10.748;2023-11-21T04:46:01;12.23;;;7.00;;
32094;SDS011;18608;53.688;10.748;2023-11-21T04:48:27;14.87;;;7.20;;
32094;SDS011;18608;53.688;10.748;2023-11-21T04:50:53;10.90;;;6.63;;
32094;SDS011;18608;53.688;10.748;2023-11-21T04:53:19;7.60;;;5.30;;
32094;SDS011;18608;53.688;10.748;2023-11-21T04:55:45;16.33;;;8.63;;
32094;SDS011;18608;53.688;10.748;2023-11-21T04:58:11;15.30;;;9.63;;
32094;SDS011;18608;53.688;10.748;2023-11-21T05:00:37;14.50;;;7.50;;
32094;SDS011;18608;53.688;10.748;2023-11-21T05:03:03;13.40;;;8.80;;
32094;SDS011;18608;53.688;10.748;2023-11-21T05:05:30;17.80;;;9.93;;
32094;SDS011;18608;53.688;10.748;2023-11-21T05:07:56;14.70;;;8.77;;
32094;SDS011;18608;53.688;10.748;2023-11-21T05:10:22;14.93;;;8.60;;
32094;SDS011;18608;53.688;10.748;2023-11-21T05:12:47;15.37;;;10.00;;
32094;SDS011;18608;53.688;10.748;2023-11-21T05:15:15;14.87;;;7.73;;
32094;SDS011;18608;53.688;10.748;2023-11-21T05:17:42;14.07;;;8.93;;
32094;SDS011;18608;53.688;10.748;2023-11-21T05:20:12;10.83;;;7.43;;
32094;SDS011;18608;53.688;10.748;2023-11-21T05:22:39;18.30;;;8.00;;
32094;SDS011;18608;53.688;10.748;2023-11-21T05:25:07;14.90;;;9.50;;
32094;SDS011;18608;53.688;10.748;2023-11-21T05:27:33;14.80;;;9.60;;
32094;SDS011;18608;53.688;10.748;2023-11-21T05:30:00;15.00;;;9.10;;
32094;SDS011;18608;53.688;10.748;2023-11-21T05:32:37;8.53;;;6.13;;
32094;SDS011;18608;53.688;10.748;2023-11-21T05:35:04;13.33;;;8.20;;
32094;SDS011;18608;53.688;10.748;2023-11-21T05:37:34;14.50;;;8.37;;
32094;SDS011;18608;53.688;10.748;2023-11-21T05:40:01;12.27;;;8.67;;
32094;SDS011;18608;53.688;10.748;2023-11-21T05:42:37;17.43;;;8.90;;
32094;SDS011;18608;53.688;10.748;2023-11-21T05:45:03;12.77;;;7.30;;
32094;SDS011;18608;53.688;10.748;2023-11-21T05:47:39;14.47;;;7.50;;
32094;SDS011;18608;53.688;10.748;2023-11-21T05:50:06;11.23;;;8.00;;
32094;SDS011;18608;53.688;10.748;2023-11-21T05:52:37;14.50;;;8.27;;
32094;SDS011;18608;53.688;10.748;2023-11-21T05:55:03;15.83;;;7.77;;
32094;SDS011;18608;53.688;10.748;2023-11-21T05:57:32;16.30;;;8.50;;
32094;SDS011;18608;53.688;10.748;2023-11-21T05:59:58;9.67;;;6.67;;
32094;SDS011;18608;53.688;10.748;2023-11-21T06:02:24;12.50;;;8.57;;
32094;SDS011;18608;53.688;10.748;2023-11-21T06:04:50;14.93;;;8.20;;
32094;SDS011;18608;53.688;10.748;2023-11-21T06:07:16;8.33;;;6.30;;
32094;SDS011;18608;53.688;10.748;2023-11-21T06:09:42;7.83;;;5.83;;
32094;SDS011;18608;53.688;10.748;2023-11-21T06:12:09;9.83;;;6.00;;
32094;SDS011;18608;53.688;10.748;2023-11-21T06:14:36;8.13;;;4.97;;
32094;SDS011;18608;53.688;10.748;2023-11-21T06:17:01;9.07;;;7.10;;
32094;SDS011;18608;53.688;10.748;2023-11-21T06:19:27;10.37;;;7.50;;
32094;SDS011;18608;53.688;10.748;2023-11-21T06:21:54;8.00;;;6.33;;
32094;SDS011;18608;53.688;10.748;2023-11-21T06:24:20;8.77;;;6.40;;
32094;SDS011;18608;53.688;10.748;2023-11-21T06:26:46;11.60;;;6.20;;
32094;SDS011;18608;53.688;10.748;2023-11-21T06:29:13;10.17;;;7.47;;
32094;SDS011;18608;53.688;10.748;2023-11-21T06:31:40;10.90;;;6.53;;
32094;SDS011;18608;53.688;10.748;2023-11-21T06:34:06;9.63;;;6.93;;
32094;SDS011;18608;53.688;10.748;2023-11-21T06:36:34;11.63;;;6.80;;
32094;SDS011;18608;53.688;10.748;2023-11-21T06:39:00;10.83;;;5.60;;
32094;SDS011;18608;53.688;10.748;2023-11-21T06:41:26;7.83;;;6.43;;
32094;SDS011;18608;53.688;10.748;2023-11-21T06:43:52;5.33;;;4.80;;
32094;SDS011;18608;53.688;10.748;2023-11-21T06:46:18;9.70;;;5.43;;
32094;SDS011;18608;53.688;10.748;2023-11-21T06:48:44;11.20;;;6.00;;
32094;SDS011;18608;53.688;10.748;2023-11-21T06:51:11;10.80;;;6.27;;
32094;SDS011;18608;53.688;10.748;2023-11-21T06:53:38;8.17;;;6.27;;
32094;SDS011;18608;53.688;10.748;2023-11-21T06:56:04;9.93;;;7.10;;
32094;SDS011;18608;53.688;10.748;2023-11-21T06:58:30;8.50;;;6.00;;
32094;SDS011;18608;53.688;10.748;2023-11-21T07:00:56;3.93;;;3.20;;
32094;SDS011;18608;53.688;10.748;2023-11-21T07:03:23;14.00;;;6.53;;
32094;SDS011;18608;53.688;10.748;2023-11-21T07:05:50;7.10;;;5.37;;
32094;SDS011;18608;53.688;10.748;2023-11-21T07:08:16;6.83;;;5.50;;
32094;SDS011;18608;53.688;10.748;2023-11-21T07:10:42;6.00;;;5.30;;
32094;SDS011;18608;53.688;10.748;2023-11-21T07:13:08;16.80;;;5.73;;
32094;SDS011;18608;53.688;10.748;2023-11-21T07:15:37;9.70;;;5.80;;
32094;SDS011;18608;53.688;10.748;2023-11-21T07:18:03;6.67;;;4.33;;
32094;SDS011;18608;53.688;10.748;2023-11-21T07:20:29;6.53;;;4.80;;
32094;SDS011;18608;53.688;10.748;2023-11-21T07:22:55;6.73;;;4.50;;
32094;SDS011;18608;53.688;10.748;2023-11-21T07:25:22;8.93;;;5.90;;
32094;SDS011;18608;53.688;10.748;2023-11-21T07:27:48;7.67;;;5.90;;
32094;SDS011;18608;53.688;10.748;2023-11-21T07:30:15;10.53;;;6.10;;
32094;SDS011;18608;53.688;10.748;2023-11-21T07:32:41;6.40;;;5.17;;
32094;SDS011;18608;53.688;10.748;2023-11-21T07:35:07;6.60;;;5.90;;
32094;SDS011;18608;53.688;10.748;2023-11-21T07:37:33;6.83;;;4.10;;
32094;SDS011;18608;53.688;10.748;2023-11-21T07:39:59;8.30;;;4.33;;
32094;SDS011;18608;53.688;10.748;2023-11-21T07:42:25;7.50;;;4.17;;
32094;SDS011;18608;53.688;10.748;2023-11-21T07:44:51;13.60;;;4.90;;
32094;SDS011;18608;53.688;10.748;2023-11-21T07:47:17;4.70;;;3.87;;
32094;SDS011;18608;53.688;10.748;2023-11-21T07:49:43;9.13;;;4.60;;
32094;SDS011;18608;53.688;10.748;2023-11-21T07:52:10;6.47;;;4.47;;
32094;SDS011;18608;53.688;10.748;2023-11-21T07:54:36;5.07;;;3.83;;
32094;SDS011;18608;53.688;10.748;2023-11-21T07:57:02;4.43;;;4.03;;
32094;SDS011;18608;53.688;10.748;2023-11-21T07:59:29;8.47;;;4.00;;
32094;SDS011;18608;53.688;10.748;2023-11-21T08:01:55;7.87;;;4.73;;
32094;SDS011;18608;53.688;10.748;2023-11-21T08:04:21;4.73;;;4.17;;
32094;SDS011;18608;53.688;10.748;2023-11-21T08:06:48;8.93;;;3.70;;
32094;SDS011;18608;53.688;10.748;2023-11-21T08:09:14;4.53;;;3.50;;
32094;SDS011;18608;53.688;10.748;2023-11-21T08:11:42;6.03;;;3.20;;
32094;SDS011;18608;53.688;10.748;2023-11-21T08:14:08;3.70;;;3.40;;
32094;SDS011;18608;53.688;10.748;2023-11-21T08:16:34;5.13;;;4.17;;
32094;SDS011;18608;53.688;10.748;2023-11-21T08:19:00;3.53;;;3.23;;
32094;SDS011;18608;53.688;10.748;2023-11-21T08:21:27;5.13;;;3.50;;
32094;SDS011;18608;53.688;10.748;2023-11-21T08:23:54;6.70;;;4.20;;
32094;SDS011;18608;53.688;10.748;2023-11-21T08:26:23;4.80;;;4.07;;
32094;SDS011;18608;53.688;10.748;2023-11-21T08:28:48;5.90;;;4.00;;
32094;SDS011;18608;53.688;10.748;2023-11-21T08:31:14;4.37;;;3.50;;
32094;SDS011;18608;53.688;10.748;2023-11-21T08:33:40;7.17;;;3.80;;
32094;SDS011;18608;53.688;10.748;2023-11-21T08:36:07;5.33;;;3.87;;
32094;SDS011;18608;53.688;10.748;2023-11-21T08:38:34;4.50;;;4.00;;
32094;SDS011;18608;53.688;10.748;2023-11-21T08:41:02;4.90;;;3.77;;
32094;SDS011;18608;53.688;10.748;2023-11-21T08:43:36;6.80;;;3.43;;
32094;SDS011;18608;53.688;10.748;2023-11-21T08:46:05;3.90;;;3.40;;
32094;SDS011;18608;53.688;10.748;2023-11-21T08:48:31;5.63;;;3.87;;
32094;SDS011;18608;53.688;10.748;2023-11-21T08:50:57;3.30;;;3.00;;
32094;SDS011;18608;53.688;10.748;2023-11-21T08:53:23;4.17;;;3.73;;
32094;SDS011;18608;53.688;10.748;2023-11-21T08:55:51;4.27;;;3.77;;
32094;SDS011;18608;53.688;10.748;2023-11-21T08:58:18;6.87;;;4.07;;
32094;SDS011;18608;53.688;10.748;2023-11-21T09:00:44;4.80;;;4.40;;
32094;SDS011;18608;53.688;10.748;2023-11-21T09:03:11;4.30;;;3.80;;
32094;SDS011;18608;53.688;10.748;2023-11-21T09:05:37;7.60;;;4.50;;
32094;SDS011;18608;53.688;10.748;2023-11-21T09:08:04;6.13;;;4.47;;
32094;SDS011;18608;53.688;10.748;2023-11-21T09:10:29;3.03;;;2.80;;
32094;SDS011;18608;53.688;10.748;2023-11-21T09:12:55;4.80;;;3.90;;
32094;SDS011;18608;53.688;10.748;2023-11-21T09:15:21;4.97;;;4.43;;
32094;SDS011;18608;53.688;10.748;2023-11-21T09:17:47;3.10;;;2.90;;
32094;SDS011;18608;53.688;10.748;2023-11-21T09:20:13;3.90;;;3.60;;
32094;SDS011;18608;53.688;10.748;2023-11-21T09:22:40;5.97;;;4.60;;
32094;SDS011;18608;53.688;10.748;2023-11-21T09:25:06;3.63;;;3.33;;
32094;SDS011;18608;53.688;10.748;2023-11-21T09:27:33;4.77;;;4.27;;
32094;SDS011;18608;53.688;10.748;2023-11-21T09:30:00;3.70;;;3.03;;
32094;SDS011;18608;53.688;10.748;2023-11-21T09:32:26;4.03;;;3.60;;
32094;SDS011;18608;53.688;10.748;2023-11-21T09:34:52;6.90;;;3.90;;
32094;SDS011;18608;53.688;10.748;2023-11-21T09:37:20;4.03;;;3.60;;
32094;SDS011;18608;53.688;10.748;2023-11-21T09:39:46;4.20;;;3.53;;
32094;SDS011;18608;53.688;10.748;2023-11-21T09:45:17;3.70;;;2.70;;
32094;SDS011;18608;53.688;10.748;2023-11-21T09:47:48;4.10;;;2.93;;
32094;SDS011;18608;53.688;10.748;2023-11-21T09:50:17;4.17;;;3.30;;
32094;SDS011;18608;53.688;10.748;2023-11-21T09:55:22;4.57;;;3.63;;
32094;SDS011;18608;53.688;10.748;2023-11-21T09:57:52;4.47;;;3.83;;
32094;SDS011;18608;53.688;10.748;2023-11-21T10:00:19;3.77;;;3.00;;
32094;SDS011;18608;53.688;10.748;2023-11-21T10:02:48;7.80;;;4.03;;
32094;SDS011;18608;53.688;10.748;2023-11-21T10:05:15;11.83;;;3.90;;
32094;SDS011;18608;53.688;10.748;2023-11-21T10:07:43;5.87;;;4.27;;
32094;SDS011;18608;53.688;10.748;2023-11-21T10:10:10;5.13;;;3.40;;
32094;SDS011;18608;53.688;10.748;2023-11-21T10:12:36;7.90;;;4.40;;
32094;SDS011;18608;53.688;10.748;2023-11-21T10:15:03;3.67;;;2.80;;
32094;SDS011;18608;53.688;10.748;2023-11-21T10:17:34;6.73;;;4.60;;
32094;SDS011;18608;53.688;10.748;2023-11-21T10:20:08;3.87;;;3.47;;
32094;SDS011;18608;53.688;10.748;2023-11-21T10:22:41;9.07;;;3.90;;
32094;SDS011;18608;53.688;10.748;2023-11-21T10:25:08;3.37;;;3.07;;
32094;SDS011;18608;53.688;10.748;2023-11-21T10:27:34;5.30;;;4.27;;
32094;SDS011;18608;53.688;10.748;2023-11-21T10:30:02;4.23;;;3.83;;
32094;SDS011;18608;53.688;10.748;2023-11-21T10:32:29;4.80;;;4.33;;
32094;SDS011;18608;53.688;10.748;2023-11-21T10:34:58;5.07;;;4.40;;
32094;SDS011;18608;53.688;10.748;2023-11-21T10:37:34;6.90;;;4.07;;
32094;SDS011;18608;53.688;10.748;2023-11-21T10:40:08;7.60;;;3.10;;
32094;SDS011;18608;53.688;10.748;2023-11-21T10:42:37;5.10;;;3.93;;
32094;SDS011;18608;53.688;10.748;2023-11-21T10:45:03;4.40;;;4.00;;
32094;SDS011;18608;53.688;10.748;2023-11-21T10:47:40;5.17;;;4.43;;
32094;SDS011;18608;53.688;10.748;2023-11-21T10:50:07;4.33;;;3.93;;
32094;SDS011;18608;53.688;10.748;2023-11-21T10:52:39;4.60;;;4.10;;
32094;SDS011;18608;53.688;10.748;2023-11-21T10:55:17;4.20;;;3.90;;
32094;SDS011;18608;53.688;10.748;2023-11-21T10:57:48;7.77;;;5.10;;
32094;SDS011;18608;53.688;10.748;2023-11-21T11:00:17;4.27;;;3.90;;
32094;SDS011;18608;53.688;10.748;2023-11-21T11:02:48;4.83;;;2.97;;
32094;SDS011;18608;53.688;10.748;2023-11-21T11:05:17;5.87;;;4.73;;
32094;SDS011;18608;53.688;10.748;2023-11-21T11:07:44;5.10;;;3.80;;
32094;SDS011;18608;53.688;10.748;2023-11-21T11:10:13;7.93;;;4.93;;
32094;SDS011;18608;53.688;10.748;2023-11-21T11:12:40;5.00;;;4.20;;
32094;SDS011;18608;53.688;10.748;2023-11-21T11:15:07;3.60;;;3.30;;
32094;SDS011;18608;53.688;10.748;2023-11-21T11:17:35;4.77;;;3.60;;
32094;SDS011;18608;53.688;10.748;2023-11-21T11:20:04;3.97;;;3.60;;
32094;SDS011;18608;53.688;10.748;2023-11-21T11:22:37;5.27;;;4.10;;
32094;SDS011;18608;53.688;10.748;2023-11-21T11:36:23;7.23;;;3.50;;
32094;SDS011;18608;53.688;10.748;2023-11-21T11:39:01;4.50;;;3.03;;
32094;SDS011;18608;53.688;10.748;2023-11-21T11:41:30;11.30;;;3.43;;
32094;SDS011;18608;53.688;10.748;2023-11-21T11:43:58;6.10;;;3.77;;
32094;SDS011;18608;53.688;10.748;2023-11-21T11:46:41;4.50;;;2.97;;
32094;SDS011;18608;53.688;10.748;2023-11-21T11:49:08;5.03;;;3.77;;
32094;SDS011;18608;53.688;10.748;2023-11-21T11:51:34;3.90;;;3.03;;
32094;SDS011;18608;53.688;10.748;2023-11-21T11:54:01;5.60;;;4.30;;
32094;SDS011;18608;53.688;10.748;2023-11-21T11:56:33;3.77;;;3.57;;
32094;SDS011;18608;53.688;10.748;2023-11-21T11:59:04;6.70;;;3.60;;
32094;SDS011;18608;53.688;10.748;2023-11-21T12:01:34;6.47;;;3.70;;
32094;SDS011;18608;53.688;10.748;2023-11-21T12:06:45;4.70;;;3.97;;
32094;SDS011;18608;53.688;10.748;2023-11-21T12:09:18;4.70;;;3.90;;
32094;SDS011;18608;53.688;10.748;2023-11-21T12:11:45;4.50;;;3.70;;
32094;SDS011;18608;53.688;10.748;2023-11-21T12:14:12;6.80;;;3.40;;
32094;SDS011;18608;53.688;10.748;2023-11-21T12:16:38;6.60;;;4.30;;
32094;SDS011;18608;53.688;10.748;2023-11-21T12:19:04;5.40;;;3.30;;
32094;SDS011;18608;53.688;10.748;2023-11-21T12:21:30;9.20;;;5.03;;
32094;SDS011;18608;53.688;10.748;2023-11-21T12:23:57;5.30;;;4.43;;
32094;SDS011;18608;53.688;10.748;2023-11-21T12:26:23;4.47;;;3.67;;
32094;SDS011;18608;53.688;10.748;2023-11-21T12:28:52;11.03;;;3.87;;
32094;SDS011;18608;53.688;10.748;2023-11-21T12:31:20;5.90;;;3.80;;
32094;SDS011;18608;53.688;10.748;2023-11-21T12:33:46;5.43;;;3.77;;
32094;SDS011;18608;53.688;10.748;2023-11-21T12:36:13;6.27;;;3.87;;
32094;SDS011;18608;53.688;10.748;2023-11-21T12:38:39;5.23;;;4.60;;
32094;SDS011;18608;53.688;10.748;2023-11-21T12:41:05;2.93;;;2.73;;
32094;SDS011;18608;53.688;10.748;2023-11-21T12:43:31;4.10;;;3.30;;
32094;SDS011;18608;53.688;10.748;2023-11-21T12:46:07;3.70;;;3.27;;
32094;SDS011;18608;53.688;10.748;2023-11-21T12:48:36;5.40;;;2.50;;
32094;SDS011;18608;53.688;10.748;2023-11-21T12:51:04;4.67;;;3.80;;
32094;SDS011;18608;53.688;10.748;2023-11-21T12:53:31;2.47;;;2.07;;
32094;SDS011;18608;53.688;10.748;2023-11-21T12:56:06;3.50;;;3.27;;
32094;SDS011;18608;53.688;10.748;2023-11-21T12:58:34;5.33;;;4.53;;
32094;SDS011;18608;53.688;10.748;2023-11-21T13:01:07;3.70;;;3.37;;
32094;SDS011;18608;53.688;10.748;2023-11-21T13:03:43;2.80;;;2.60;;
32094;SDS011;18608;53.688;10.748;2023-11-21T13:06:13;9.17;;;3.83;;
32094;SDS011;18608;53.688;10.748;2023-11-21T13:08:43;4.60;;;3.60;;
32094;SDS011;18608;53.688;10.748;2023-11-21T13:11:10;4.13;;;3.83;;
32094;SDS011;18608;53.688;10.748;2023-11-21T13:13:36;3.50;;;3.20;;
32094;SDS011;18608;53.688;10.748;2023-11-21T13:16:03;2.90;;;2.60;;
32094;SDS011;18608;53.688;10.748;2023-11-21T13:18:30;6.77;;;3.83;;
32094;SDS011;18608;53.688;10.748;2023-11-21T13:21:01;6.67;;;2.90;;
32094;SDS011;18608;53.688;10.748;2023-11-21T13:23:34;3.90;;;3.60;;
32094;SDS011;18608;53.688;10.748;2023-11-21T13:26:01;6.10;;;3.70;;
32094;SDS011;18608;53.688;10.748;2023-11-21T13:28:29;6.90;;;3.60;;
32094;SDS011;18608;53.688;10.748;2023-11-21T13:30:58;5.60;;;3.13;;
32094;SDS011;18608;53.688;10.748;2023-11-21T13:33:28;5.47;;;3.77;;
32094;SDS011;18608;53.688;10.748;2023-11-21T13:35:54;5.50;;;3.33;;
32094;SDS011;18608;53.688;10.748;2023-11-21T13:38:21;5.77;;;3.70;;
32094;SDS011;18608;53.688;10.748;2023-11-21T13:40:55;2.77;;;2.57;;
32094;SDS011;18608;53.688;10.748;2023-11-21T13:43:23;5.80;;;3.70;;
32094;SDS011;18608;53.688;10.748;2023-11-21T13:45:51;2.47;;;2.27;;
32094;SDS011;18608;53.688;10.748;2023-11-21T13:48:28;4.33;;;3.43;;
32094;SDS011;18608;53.688;10.748;2023-11-21T13:51:05;9.20;;;3.10;;
32094;SDS011;18608;53.688;10.748;2023-11-21T13:53:45;9.10;;;4.47;;
32094;SDS011;18608;53.688;10.748;2023-11-21T13:56:14;3.20;;;2.90;;
32094;SDS011;18608;53.688;10.748;2023-11-21T13:58:53;3.80;;;3.13;;
32094;SDS011;18608;53.688;10.748;2023-11-21T14:01:21;4.03;;;3.30;;
32094;SDS011;18608;53.688;10.748;2023-11-21T14:03:55;3.33;;;1.93;;
32094;SDS011;18608;53.688;10.748;2023-11-21T14:06:36;2.20;;;2.10;;
32094;SDS011;18608;53.688;10.748;2023-11-21T14:09:12;3.33;;;2.47;;
32094;SDS011;18608;53.688;10.748;2023-11-21T14:11:47;3.47;;;2.70;;
32094;SDS011;18608;53.688;10.748;2023-11-21T14:14:13;4.73;;;2.80;;
32094;SDS011;18608;53.688;10.748;2023-11-21T14:16:39;13.27;;;7.40;;
32094;SDS011;18608;53.688;10.748;2023-11-21T14:19:07;23.50;;;11.93;;
32094;SDS011;18608;53.688;10.748;2023-11-21T14:21:40;19.60;;;8.90;;
32094;SDS011;18608;53.688;10.748;2023-11-21T14:24:08;10.63;;;4.00;;
32094;SDS011;18608;53.688;10.748;2023-11-21T14:26:34;8.93;;;5.40;;
32094;SDS011;18608;53.688;10.748;2023-11-21T14:29:00;2.20;;;2.03;;
32094;SDS011;18608;53.688;10.748;2023-11-21T14:31:27;2.20;;;2.00;;
32094;SDS011;18608;53.688;10.748;2023-11-21T14:33:55;1.60;;;1.50;;
32094;SDS011;18608;53.688;10.748;2023-11-21T14:36:21;4.20;;;1.33;;
32094;SDS011;18608;53.688;10.748;2023-11-21T14:38:49;1.40;;;1.30;;
32094;SDS011;18608;53.688;10.748;2023-11-21T14:41:15;1.53;;;1.20;;
32094;SDS011;18608;53.688;10.748;2023-11-21T14:43:41;1.80;;;1.70;;
32094;SDS011;18608;53.688;10.748;2023-11-21T14:46:08;2.33;;;2.13;;
32094;SDS011;18608;53.688;10.748;2023-11-21T14:48:39;2.50;;;1.40;;